Terminal Aerodrome Forecast
Issued by NWS Sioux Falls, SD

Home | Current Version | Previous Version | Graphics & Text | Print | Product List | Glossary On
Versions: 1 2 3 4 5 6 7 8 9 10 11 12 13 14 15 16 17 18 19 20 21 22 23 24
148
FTUS43 KFSD 251736
TAFFSD
TAF
KFSD 251736Z 2518/2618 01010KT 5SM -SHRA BKN009 OVC015
     FM252100 35009KT 5SM -SHRA BR SCT006 OVC009
     FM261000 33007KT P6SM VCSH SCT006 OVC008
     FM261600 32011KT P6SM BKN015 OVC030=

USA.gov is the U.S. government's official web portal to all federal, state and local government web resources and services.